createdAt,value
2019-04-22T00:00:12.743Z,9.20
2019-04-22T00:01:13.666Z,9.21
2019-04-22T00:02:13.507Z,9.18
2019-04-22T00:03:15.252Z,9.23
2019-04-22T00:04:17.753Z,9.15
2019-04-22T00:05:25.906Z,9.13
2019-04-22T00:06:30.811Z,9.14
2019-04-22T00:07:35.930Z,9.10
2019-04-22T00:08:36.230Z,9.10
2019-04-22T00:09:38.853Z,9.02
2019-04-22T00:10:40.720Z,9.08
2019-04-22T00:11:37.791Z,9.05
2019-04-22T00:12:43.942Z,9.10
2019-04-22T00:13:41.898Z,9.05
2019-04-22T00:14:38.810Z,9.08
2019-04-22T00:15:32.551Z,9.01
2019-04-22T00:16:50.336Z,9.08
2019-04-22T00:18:54.834Z,8.98
2019-04-22T00:19:43.776Z,9.10
2019-04-22T00:20:35.443Z,9.02
2019-04-22T00:21:40.637Z,8.99
2019-04-22T00:22:40.188Z,8.95
2019-04-22T00:23:39.313Z,8.91
2019-04-22T00:24:38.133Z,8.89
2019-04-22T00:25:42.110Z,8.91
2019-04-22T00:27:42.819Z,8.87
2019-04-22T00:28:43.747Z,8.84
2019-04-22T00:30:35.565Z,8.81
2019-04-22T00:31:40.368Z,8.81
2019-04-22T00:32:38.303Z,8.71
2019-04-22T00:33:39.312Z,8.65
2019-04-22T00:34:32.417Z,8.68
2019-04-22T00:35:37.525Z,8.66
2019-04-22T00:36:36.520Z,8.63
2019-04-22T00:37:58.064Z,8.62
2019-04-22T00:38:38.770Z,8.56
2019-04-22T00:39:44.462Z,8.55
2019-04-22T00:40:42.039Z,8.56
2019-04-22T00:41:43.931Z,8.55
2019-04-22T00:42:41.593Z,8.58
2019-04-22T00:43:45.830Z,8.45
2019-04-22T00:44:40.326Z,8.44
2019-04-22T00:45:38.727Z,8.45
2019-04-22T00:46:43.197Z,8.50
2019-04-22T00:47:40.673Z,8.50
2019-04-22T00:48:48.647Z,8.50
2019-04-22T00:50:37.482Z,8.43
2019-04-22T00:51:44.745Z,8.43
2019-04-22T00:52:38.807Z,8.41
2019-04-22T00:53:39.191Z,8.43
2019-04-22T00:54:51.297Z,8.36
2019-04-22T00:55:40.431Z,8.34
2019-04-22T00:56:35.870Z,8.38
2019-04-22T00:57:42.497Z,8.29
2019-04-22T00:58:41.157Z,8.29
2019-04-22T00:59:40.510Z,8.30
2019-04-22T01:00:40.975Z,8.25
2019-04-22T01:01:38.258Z,8.30
2019-04-22T01:02:41.861Z,8.28
2019-04-22T01:03:44.200Z,8.25
2019-04-22T01:04:40.670Z,8.22
2019-04-22T01:05:44.493Z,8.23
2019-04-22T01:06:38.614Z,8.23
2019-04-22T01:07:41.463Z,8.25
2019-04-22T01:08:46.872Z,8.34
2019-04-22T01:09:44.976Z,8.22
2019-04-22T01:10:38.943Z,8.25
2019-04-22T01:11:37.756Z,8.18
2019-04-22T01:12:41.442Z,8.20
2019-04-22T01:13:38.346Z,8.22
2019-04-22T01:14:41.420Z,8.19
2019-04-22T01:15:41.963Z,8.16
2019-04-22T01:16:45.786Z,8.22
2019-04-22T01:17:40.301Z,8.20
2019-04-22T01:18:37.996Z,8.19
2019-04-22T01:19:45.208Z,8.15
2019-04-22T01:21:00.518Z,8.15
2019-04-22T01:21:39.843Z,8.18
2019-04-22T01:22:34.230Z,8.15
2019-04-22T01:23:37.181Z,8.12
2019-04-22T01:24:32.715Z,8.11
2019-04-22T01:25:37.469Z,8.08
2019-04-22T01:26:34.641Z,8.05
2019-04-22T01:27:32.403Z,8.07
2019-04-22T01:28:30.122Z,8.05
2019-04-22T01:29:32.160Z,8.05
2019-04-22T01:30:26.436Z,8.05
2019-04-22T01:31:20.303Z,7.97
2019-04-22T01:32:23.893Z,8.01
2019-04-22T01:33:23.834Z,8.00
2019-04-22T01:34:32.202Z,7.92
2019-04-22T01:35:28.667Z,8.05
2019-04-22T01:36:38.802Z,8.02
2019-04-22T01:37:34.596Z,8.00
2019-04-22T01:38:43.363Z,7.98
2019-04-22T01:39:43.920Z,7.98
2019-04-22T01:40:48.260Z,7.97
2019-04-22T01:41:48.802Z,7.95
2019-04-22T01:42:50.399Z,7.90
2019-04-22T01:43:51.850Z,8.00
2019-04-22T01:44:40.802Z,7.92
2019-04-22T01:45:39.401Z,7.83
2019-04-22T01:46:45.048Z,7.85
2019-04-22T01:47:46.658Z,7.85
2019-04-22T01:48:39.559Z,7.69
2019-04-22T01:49:44.137Z,7.83
2019-04-22T01:50:41.007Z,7.77
2019-04-22T01:51:51.792Z,7.85
2019-04-22T01:52:50.288Z,7.90
2019-04-22T01:53:43.013Z,7.77
2019-04-22T01:54:52.698Z,7.83
2019-04-22T01:55:45.409Z,7.79
2019-04-22T01:56:40.960Z,7.80
2019-04-22T01:57:44.446Z,7.72
2019-04-22T01:58:33.277Z,7.64
2019-04-22T01:59:37.120Z,7.60
2019-04-22T02:00:45.360Z,7.64
2019-04-22T02:01:48.462Z,7.74
2019-04-22T02:02:41.738Z,7.63
2019-04-22T02:03:46.742Z,7.67
2019-04-22T02:04:44.609Z,7.69
2019-04-22T02:05:44.025Z,7.57
2019-04-22T02:06:45.737Z,7.61
2019-04-22T02:07:41.937Z,7.67
2019-04-22T02:08:53.345Z,7.67
2019-04-22T02:09:47.442Z,7.55
2019-04-22T02:10:50.834Z,7.57
2019-04-22T02:11:48.747Z,7.46
2019-04-22T02:12:45.920Z,7.49
2019-04-22T02:13:42.830Z,7.46
2019-04-22T02:14:45.459Z,7.49
2019-04-22T02:15:47.927Z,7.39
2019-04-22T02:16:49.781Z,7.39
2019-04-22T02:17:50.286Z,7.37
2019-04-22T02:18:50.729Z,7.37
2019-04-22T02:19:45.719Z,7.48
2019-04-22T02:20:43.027Z,7.37
2019-04-22T02:21:42.542Z,7.40
2019-04-22T02:23:02.078Z,7.30
2019-04-22T02:24:48.015Z,7.34
2019-04-22T02:25:49.477Z,7.27
2019-04-22T02:26:40.473Z,7.27
2019-04-22T02:27:52.021Z,7.24
2019-04-22T02:28:55.111Z,7.24
2019-04-22T02:31:01.823Z,7.21
2019-04-22T02:31:56.469Z,7.21
2019-04-22T02:32:59.097Z,7.23
2019-04-22T02:35:03.733Z,7.23
2019-04-22T02:36:15.066Z,7.05
2019-04-22T02:36:42.404Z,7.06
2019-04-22T02:37:45.116Z,7.10
2019-04-22T02:39:48.773Z,7.21
2019-04-22T02:41:13.363Z,7.05
2019-04-22T02:42:52.223Z,7.13
2019-04-22T02:44:48.486Z,7.07
2019-04-22T02:46:02.678Z,7.09
2019-04-22T02:47:14.045Z,7.13
2019-04-22T02:47:54.523Z,7.17
2019-04-22T02:49:08.550Z,7.03
2019-04-22T02:49:45.403Z,7.05
2019-04-22T02:50:54.843Z,7.09
2019-04-22T02:51:40.277Z,7.06
2019-04-22T02:52:43.217Z,7.02
2019-04-22T02:55:48.861Z,6.88
2019-04-22T02:59:05.806Z,6.95
2019-04-22T03:00:58.274Z,6.88
2019-04-22T03:03:00.999Z,6.92
2019-04-22T03:04:43.974Z,6.88
2019-04-22T03:05:55.338Z,6.95
2019-04-22T03:09:47.710Z,6.88
2019-04-22T03:10:56.620Z,6.79
2019-04-22T03:11:59.317Z,6.85
2019-04-22T03:13:09.179Z,6.87
2019-04-22T03:13:57.811Z,6.84
2019-04-22T03:14:49.567Z,6.80
2019-04-22T03:15:59.519Z,6.88
2019-04-22T03:16:51.187Z,6.89
2019-04-22T03:18:55.589Z,6.71
2019-04-22T03:20:06.301Z,6.80
2019-04-22T03:22:00.762Z,6.73
2019-04-22T03:22:59.555Z,6.70
2019-04-22T03:24:17.924Z,6.67
2019-04-22T03:25:05.925Z,6.71
2019-04-22T03:26:48.897Z,6.69
2019-04-22T03:27:46.386Z,6.61
2019-04-22T03:28:51.638Z,6.58
2019-04-22T03:30:26.412Z,6.61
2019-04-22T03:32:16.737Z,6.58
2019-04-22T03:34:15.463Z,6.58
2019-04-22T03:36:26.133Z,6.48
2019-04-22T03:37:53.327Z,6.58
2019-04-22T03:39:06.859Z,6.56
2019-04-22T03:40:54.923Z,6.59
2019-04-22T03:42:05.706Z,6.64
2019-04-22T03:42:55.947Z,6.62
2019-04-22T03:44:10.148Z,6.61
2019-04-22T03:45:00.546Z,6.64
2019-04-22T03:45:37.998Z,6.56
2019-04-22T03:47:02.407Z,6.61
2019-04-22T03:49:07.168Z,6.58
2019-04-22T03:50:52.439Z,6.49
2019-04-22T03:52:10.791Z,6.51
2019-04-22T03:52:53.064Z,6.49
2019-04-22T03:54:02.791Z,6.44
2019-04-22T03:55:53.213Z,6.51
2019-04-22T03:58:58.645Z,6.41
2019-04-22T04:02:13.447Z,6.44
2019-04-22T04:02:54.835Z,6.48
2019-04-22T04:04:03.267Z,6.33
2019-04-22T04:04:51.075Z,6.31
2019-04-22T04:05:52.535Z,6.40
2019-04-22T04:08:57.275Z,6.38
2019-04-22T04:10:08.115Z,6.40
2019-04-22T04:10:53.385Z,6.34
2019-04-22T04:13:05.074Z,6.37
2019-04-22T04:14:05.151Z,6.37
2019-04-22T04:15:14.017Z,6.38
2019-04-22T04:15:53.564Z,6.34
2019-04-22T04:16:56.180Z,6.36
2019-04-22T04:17:59.460Z,6.36
2019-04-22T04:21:10.234Z,6.40
2019-04-22T04:21:53.534Z,6.46
2019-04-22T04:23:04.841Z,6.41
2019-04-22T04:24:17.210Z,6.48
2019-04-22T04:25:06.008Z,6.41
2019-04-22T04:29:02.796Z,6.44
2019-04-22T04:31:17.688Z,6.40
2019-04-22T04:32:07.261Z,6.46
2019-04-22T04:33:54.158Z,6.33
2019-04-22T04:35:58.727Z,6.43
2019-04-22T04:37:14.959Z,6.58
2019-04-22T04:38:11.473Z,6.44
2019-04-22T04:39:00.013Z,6.55
2019-04-22T04:40:05.175Z,6.55
2019-04-22T04:42:07.448Z,6.43
2019-04-22T04:42:53.280Z,6.40
2019-04-22T04:44:01.797Z,6.43
2019-04-22T04:45:12.568Z,6.41
2019-04-22T04:46:02.825Z,6.37
2019-04-22T04:47:55.270Z,6.43
2019-04-22T04:49:57.610Z,6.54
2019-04-22T04:51:07.712Z,6.55
2019-04-22T04:52:01.222Z,6.49
2019-04-22T04:54:04.318Z,6.49
2019-04-22T04:55:59.763Z,6.49
2019-04-22T04:56:56.064Z,6.52
2019-04-22T04:58:04.128Z,6.54
2019-04-22T04:59:05.732Z,6.51
2019-04-22T05:00:26.776Z,6.64
2019-04-22T05:01:11.227Z,6.59
2019-04-22T05:01:56.037Z,6.59
2019-04-22T05:03:13.092Z,6.61
2019-04-22T05:04:04.587Z,6.66
2019-04-22T05:05:06.406Z,6.71
2019-04-22T05:07:56.038Z,6.74
2019-04-22T05:09:14.719Z,6.76
2019-04-22T05:10:05.382Z,6.77
2019-04-22T05:11:01.089Z,6.85
2019-04-22T05:12:04.721Z,6.81
2019-04-22T05:12:56.697Z,6.85
2019-04-22T05:13:57.811Z,6.89
2019-04-22T05:15:00.321Z,6.89
2019-04-22T05:16:10.711Z,6.95
2019-04-22T05:16:54.568Z,6.92
2019-04-22T05:17:57.759Z,6.92
2019-04-22T05:20:06.849Z,7.09
2019-04-22T05:21:59.511Z,7.07
2019-04-22T05:23:01.821Z,7.23
2019-04-22T05:23:52.455Z,7.20
2019-04-22T05:24:53.396Z,7.23
2019-04-22T05:25:55.050Z,7.13
2019-04-22T05:27:13.328Z,7.28
2019-04-22T05:28:07.599Z,7.25
2019-04-22T05:28:50.057Z,7.30
2019-04-22T05:30:07.518Z,7.42
2019-04-22T05:30:50.312Z,7.43
2019-04-22T05:32:52.902Z,7.58
2019-04-22T05:33:47.943Z,7.55
2019-04-22T05:35:10.531Z,7.63
2019-04-22T05:35:53.838Z,7.63
2019-04-22T05:37:58.074Z,7.63
2019-04-22T05:38:53.725Z,7.69
2019-04-22T05:39:49.658Z,7.77
2019-04-22T05:40:54.236Z,7.87
2019-04-22T05:41:48.679Z,7.86
2019-04-22T05:42:53.094Z,7.95
2019-04-22T05:43:53.278Z,8.04
2019-04-22T05:44:55.486Z,8.08
2019-04-22T05:45:52.654Z,8.15
2019-04-22T05:46:47.860Z,8.11
2019-04-22T05:47:52.267Z,8.28
2019-04-22T05:48:56.646Z,8.26
2019-04-22T05:49:47.746Z,8.34
2019-04-22T05:50:50.426Z,8.43
2019-04-22T05:51:48.544Z,8.48
2019-04-22T05:52:52.647Z,8.45
2019-04-22T05:53:57.438Z,8.65
2019-04-22T05:54:57.685Z,8.71
2019-04-22T05:56:12.505Z,8.79
2019-04-22T05:56:47.259Z,8.76
2019-04-22T05:57:51.058Z,8.96
2019-04-22T05:59:04.566Z,8.99
2019-04-22T05:59:51.975Z,8.96
2019-04-22T06:01:21.862Z,9.01
2019-04-22T06:03:02.184Z,8.94
2019-04-22T06:03:59.219Z,9.11
2019-04-22T06:04:51.829Z,9.13
2019-04-22T06:05:47.837Z,9.17
2019-04-22T06:06:46.952Z,9.23
2019-04-22T06:08:51.230Z,9.36
2019-04-22T06:09:52.955Z,9.48
2019-04-22T06:10:55.792Z,9.51
2019-04-22T06:11:46.420Z,9.64
2019-04-22T06:13:46.336Z,9.86
2019-04-22T06:14:53.738Z,9.91
2019-04-22T06:15:44.112Z,9.99
2019-04-22T06:16:54.009Z,10.08
2019-04-22T06:17:58.942Z,10.14
2019-04-22T06:18:56.921Z,10.22
2019-04-22T06:19:54.187Z,10.32
2019-04-22T06:20:53.894Z,10.33
2019-04-22T06:21:49.994Z,10.38
2019-04-22T06:23:58.861Z,10.56
2019-04-22T06:24:55.365Z,10.64
2019-04-22T06:26:05.285Z,10.59
2019-04-22T06:27:01.698Z,10.67
2019-04-22T06:27:58.570Z,10.82
2019-04-22T06:29:51.199Z,10.79
2019-04-22T06:30:57.303Z,11.00
2019-04-22T06:32:22.305Z,11.06
2019-04-22T06:32:53.946Z,11.11
2019-04-22T06:33:57.480Z,11.14
2019-04-22T06:34:48.612Z,11.32
2019-04-22T06:35:57.666Z,11.37
2019-04-22T06:37:05.348Z,11.40
2019-04-22T06:37:55.255Z,11.49
2019-04-22T06:39:04.412Z,11.61
2019-04-22T06:39:51.015Z,11.70
2019-04-22T06:40:54.060Z,11.75
2019-04-22T06:41:53.447Z,11.79
2019-04-22T06:42:58.549Z,11.83
2019-04-22T06:43:58.454Z,11.95
2019-04-22T06:44:51.648Z,12.09
2019-04-22T06:45:45.344Z,12.13
2019-04-22T06:46:52.263Z,12.28
2019-04-22T06:48:01.405Z,12.41
2019-04-22T06:48:52.498Z,12.41
2019-04-22T06:49:55.669Z,12.52
2019-04-22T06:50:58.396Z,12.50
2019-04-22T06:51:55.617Z,12.62
2019-04-22T06:52:56.705Z,12.70
2019-04-22T06:54:57.447Z,12.83
2019-04-22T06:55:51.665Z,12.85
2019-04-22T06:56:57.794Z,12.89
2019-04-22T06:57:51.151Z,13.01
2019-04-22T06:58:53.715Z,13.01
2019-04-22T06:59:52.046Z,13.11
2019-04-22T07:00:53.199Z,13.10
2019-04-22T07:01:59.411Z,13.12
2019-04-22T07:03:53.170Z,13.32
2019-04-22T07:04:56.890Z,13.44
2019-04-22T07:05:53.497Z,13.42
2019-04-22T07:06:56.585Z,13.54
2019-04-22T07:07:57.127Z,13.60
2019-04-22T07:09:17.905Z,13.67
2019-04-22T07:09:54.459Z,13.67
2019-04-22T07:10:50.788Z,13.73
2019-04-22T07:11:51.527Z,13.78
2019-04-22T07:12:56.578Z,13.85
2019-04-22T07:13:57.431Z,13.85
2019-04-22T07:14:53.525Z,13.88
2019-04-22T07:15:57.793Z,13.95
2019-04-22T07:16:56.105Z,14.09
2019-04-22T07:17:58.299Z,13.97
2019-04-22T07:18:54.480Z,14.09
2019-04-22T07:19:53.156Z,14.17
2019-04-22T07:20:59.890Z,14.20
2019-04-22T07:21:57.872Z,14.17
2019-04-22T07:22:51.467Z,14.24
2019-04-22T07:24:02.736Z,14.24
2019-04-22T07:24:55.938Z,14.39
2019-04-22T07:25:52.159Z,14.37
2019-04-22T07:26:57.618Z,14.36
2019-04-22T07:27:52.364Z,14.42
2019-04-22T07:28:56.537Z,14.51
2019-04-22T07:31:02.310Z,14.68
2019-04-22T07:31:49.844Z,14.68
2019-04-22T07:33:51.143Z,14.83
2019-04-22T07:36:14.639Z,14.99
2019-04-22T07:37:00.402Z,15.03
2019-04-22T07:37:54.277Z,15.06
2019-04-22T07:38:49.177Z,15.11
2019-04-22T07:39:50.181Z,15.21
2019-04-22T07:41:10.325Z,15.25
2019-04-22T07:41:56.127Z,15.34
2019-04-22T07:43:02.530Z,15.32
2019-04-22T07:44:54.943Z,15.41
2019-04-22T07:45:53.800Z,15.39
2019-04-22T07:48:02.611Z,15.54
2019-04-22T07:48:57.936Z,15.60
2019-04-22T07:49:59.177Z,15.56
2019-04-22T07:52:00.910Z,15.59
2019-04-22T07:52:52.167Z,15.67
2019-04-22T07:54:00.111Z,15.75
2019-04-22T07:56:01.320Z,15.92
2019-04-22T07:57:07.305Z,15.86
2019-04-22T07:57:59.349Z,15.84
2019-04-22T07:58:58.668Z,15.97
2019-04-22T08:00:00.737Z,16.05
2019-04-22T08:00:57.346Z,16.11
2019-04-22T08:01:56.529Z,16.15
2019-04-22T08:03:01.323Z,16.12
2019-04-22T08:04:07.599Z,16.25
2019-04-22T08:06:05.304Z,16.33
2019-04-22T08:06:58.922Z,16.24
2019-04-22T08:08:04.419Z,16.41
2019-04-22T08:09:00.343Z,16.43
2019-04-22T08:10:18.905Z,16.48
2019-04-22T08:10:57.903Z,16.41
2019-04-22T08:11:53.784Z,16.46
2019-04-22T08:12:57.996Z,16.53
2019-04-22T08:13:52.773Z,16.61
2019-04-22T08:15:12.936Z,16.75
2019-04-22T08:16:10.074Z,16.78
2019-04-22T08:17:01.022Z,16.89
2019-04-22T08:19:04.297Z,17.04
2019-04-22T08:20:58.470Z,17.21
2019-04-22T08:21:59.882Z,17.40
2019-04-22T08:22:55.782Z,17.48
2019-04-22T08:23:58.619Z,17.63
2019-04-22T08:25:55.716Z,17.70
2019-04-22T08:27:00.659Z,17.79
2019-04-22T08:28:01.661Z,17.81
2019-04-22T08:29:03.422Z,17.97
2019-04-22T08:30:14.156Z,18.00
2019-04-22T08:30:59.673Z,18.12
2019-04-22T08:33:06.845Z,18.18
2019-04-22T08:34:01.976Z,18.12
2019-04-22T08:34:55.402Z,18.32
2019-04-22T08:37:33.161Z,18.44
2019-04-22T08:38:11.876Z,18.37
2019-04-22T08:39:13.869Z,18.39
2019-04-22T08:40:03.492Z,18.47
2019-04-22T08:40:56.039Z,18.54
2019-04-22T08:41:50.972Z,18.55
2019-04-22T08:43:09.182Z,18.66
2019-04-22T08:44:07.993Z,18.63
2019-04-22T08:45:09.603Z,18.73
2019-04-22T08:45:57.132Z,18.67
2019-04-22T08:47:04.253Z,18.70
2019-04-22T08:47:55.281Z,18.78
2019-04-22T08:50:05.995Z,18.88
2019-04-22T08:51:05.465Z,18.85
2019-04-22T08:53:02.056Z,18.90
2019-04-22T08:54:00.477Z,18.95
2019-04-22T08:55:07.758Z,19.00
2019-04-22T08:56:07.433Z,19.08
2019-04-22T08:57:00.097Z,19.08
2019-04-22T08:58:17.053Z,19.18
2019-04-22T08:59:02.680Z,19.18
2019-04-22T09:01:57.356Z,19.26
2019-04-22T09:03:00.724Z,19.29
2019-04-22T09:05:10.522Z,19.43
2019-04-22T09:06:19.938Z,19.47
2019-04-22T09:08:01.431Z,19.37
2019-04-22T09:09:00.932Z,19.46
2019-04-22T09:09:55.658Z,19.40
2019-04-22T09:10:59.989Z,19.48
2019-04-22T09:11:59.887Z,19.47
2019-04-22T09:13:02.493Z,19.46
2019-04-22T09:14:06.851Z,19.59
2019-04-22T09:15:20.610Z,19.62
2019-04-22T09:15:58.988Z,19.56
2019-04-22T09:17:05.733Z,19.66
2019-04-22T09:18:06.671Z,19.66
2019-04-22T09:18:59.254Z,19.59
2019-04-22T09:20:04.670Z,19.69
2019-04-22T09:21:07.933Z,19.73
2019-04-22T09:22:00.008Z,19.66
2019-04-22T09:23:03.970Z,19.68
2019-04-22T09:24:05.254Z,19.62
2019-04-22T09:24:56.664Z,19.74
2019-04-22T09:26:03.660Z,19.80
2019-04-22T09:27:05.846Z,19.77
2019-04-22T09:27:57.731Z,19.78
2019-04-22T09:29:59.612Z,19.77
2019-04-22T09:31:01.829Z,19.84
2019-04-22T09:32:05.524Z,19.78
2019-04-22T09:33:06.212Z,19.83
2019-04-22T09:33:53.652Z,19.84
2019-04-22T09:34:59.022Z,19.91
2019-04-22T09:36:12.935Z,19.86
2019-04-22T09:37:06.254Z,19.96
2019-04-22T09:38:12.039Z,20.01
2019-04-22T09:39:00.620Z,19.95
2019-04-22T09:40:06.104Z,19.98
2019-04-22T09:41:00.684Z,19.91
2019-04-22T09:41:57.243Z,19.99
2019-04-22T09:43:17.030Z,19.94
2019-04-22T09:45:00.268Z,19.92
2019-04-22T09:45:57.533Z,19.91
2019-04-22T09:47:00.686Z,19.88
2019-04-22T09:48:00.885Z,19.98
2019-04-22T09:49:06.350Z,19.95
2019-04-22T09:50:18.545Z,19.96
2019-04-22T09:51:03.754Z,19.88
2019-04-22T09:52:08.010Z,19.91
2019-04-22T09:53:02.102Z,19.92
2019-04-22T09:54:07.290Z,19.88
2019-04-22T09:55:07.808Z,19.84
2019-04-22T09:56:03.686Z,19.95
2019-04-22T09:57:02.173Z,19.96
2019-04-22T09:59:13.346Z,20.03
2019-04-22T10:00:04.406Z,20.11
2019-04-22T10:01:07.704Z,19.99
2019-04-22T10:02:14.616Z,20.01
2019-04-22T10:04:00.807Z,20.14
2019-04-22T10:06:13.284Z,20.03
2019-04-22T10:07:08.135Z,20.10
2019-04-22T10:08:06.702Z,19.98
2019-04-22T10:11:04.708Z,20.01
2019-04-22T10:12:02.151Z,19.99
2019-04-22T10:13:10.479Z,20.02
2019-04-22T10:14:59.935Z,20.05
2019-04-22T10:16:03.122Z,19.98
2019-04-22T10:17:01.143Z,19.99
2019-04-22T10:18:04.832Z,20.03
2019-04-22T10:19:04.654Z,19.95
2019-04-22T10:20:02.452Z,20.02
2019-04-22T10:20:54.098Z,20.01
2019-04-22T10:22:23.882Z,20.03
2019-04-22T10:23:05.922Z,19.98
2019-04-22T10:24:03.117Z,20.13
2019-04-22T10:25:08.702Z,20.06
2019-04-22T10:27:01.771Z,20.10
2019-04-22T10:28:08.940Z,20.13
2019-04-22T10:29:05.963Z,20.13
2019-04-22T10:31:17.139Z,20.23
2019-04-22T10:32:00.868Z,20.24
2019-04-22T10:33:02.768Z,20.29
2019-04-22T10:33:53.237Z,20.14
2019-04-22T10:34:44.463Z,20.20
2019-04-22T10:35:37.419Z,20.21
2019-04-22T10:36:37.828Z,20.32
2019-04-22T10:37:38.623Z,20.24
2019-04-22T10:38:37.508Z,20.36
2019-04-22T10:39:46.119Z,20.28
2019-04-22T10:40:38.743Z,20.31
2019-04-22T10:41:38.931Z,20.32
2019-04-22T10:42:38.852Z,20.28
2019-04-22T10:43:38.996Z,20.28
2019-04-22T10:44:39.145Z,20.36
2019-04-22T10:45:37.834Z,20.32
2019-04-22T10:46:37.982Z,20.36
2019-04-22T10:47:38.276Z,20.33
2019-04-22T10:48:37.963Z,20.33
2019-04-22T10:49:38.346Z,20.43
2019-04-22T10:50:39.303Z,20.41
2019-04-22T10:51:38.104Z,20.41
2019-04-22T10:52:39.370Z,20.43
2019-04-22T10:53:39.551Z,20.43
2019-04-22T10:54:38.228Z,20.47
2019-04-22T10:55:41.670Z,20.47
2019-04-22T10:56:39.101Z,20.42
2019-04-22T10:57:39.042Z,20.48
2019-04-22T10:58:38.541Z,20.50
2019-04-22T10:59:38.602Z,20.51
2019-04-22T11:00:39.746Z,20.54
2019-04-22T11:01:38.716Z,20.55
2019-04-22T11:02:39.525Z,20.55
2019-04-22T11:03:39.549Z,20.58
2019-04-22T11:04:38.719Z,20.52
2019-04-22T11:05:39.839Z,20.61
2019-04-22T11:06:44.791Z,20.59
2019-04-22T11:07:44.374Z,20.62
2019-04-22T11:08:46.565Z,20.61
2019-04-22T11:09:50.497Z,20.61
2019-04-22T11:10:56.665Z,20.70
2019-04-22T11:11:48.843Z,20.67
2019-04-22T11:12:39.534Z,20.64
2019-04-22T11:13:39.918Z,20.62
2019-04-22T11:14:42.811Z,20.55
2019-04-22T11:15:40.356Z,20.64
2019-04-22T11:16:39.592Z,20.67
2019-04-22T11:17:39.724Z,20.74
2019-04-22T11:18:39.318Z,20.76
2019-04-22T11:19:39.546Z,20.87
2019-04-22T11:20:39.805Z,20.85
2019-04-22T11:21:39.447Z,20.84
2019-04-22T11:22:40.734Z,20.82
2019-04-22T11:23:40.678Z,20.84
2019-04-22T11:24:41.076Z,20.87
2019-04-22T11:25:39.692Z,20.89
2019-04-22T11:26:41.047Z,20.99
2019-04-22T11:27:41.080Z,20.95
2019-04-22T11:28:43.480Z,20.99
2019-04-22T11:29:41.486Z,20.98
2019-04-22T11:30:40.637Z,20.91
2019-04-22T11:31:39.917Z,20.88
2019-04-22T11:32:40.401Z,20.98
2019-04-22T11:33:40.634Z,21.03
2019-04-22T11:34:40.056Z,21.13
2019-04-22T11:35:41.409Z,21.12
2019-04-22T11:36:40.872Z,21.12
2019-04-22T11:37:40.802Z,21.13
2019-04-22T11:38:48.539Z,21.19
2019-04-22T11:39:40.745Z,21.14
2019-04-22T11:40:45.502Z,21.17
2019-04-22T11:41:40.438Z,21.17
2019-04-22T11:42:40.609Z,21.25
2019-04-22T11:43:41.150Z,21.25
2019-04-22T11:44:41.247Z,21.25
2019-04-22T11:45:41.623Z,21.22
2019-04-22T11:46:41.096Z,21.31
2019-04-22T11:47:41.397Z,21.22
2019-04-22T11:48:42.208Z,21.28
2019-04-22T11:49:41.734Z,21.27
2019-04-22T11:50:42.123Z,21.29
2019-04-22T11:51:42.087Z,21.38
2019-04-22T11:52:40.856Z,21.40
2019-04-22T11:53:41.031Z,21.37
2019-04-22T11:54:41.245Z,21.37
2019-04-22T11:55:42.457Z,21.42
2019-04-22T11:56:41.146Z,21.54
2019-04-22T11:57:41.423Z,21.49
2019-04-22T11:58:42.472Z,21.50
2019-04-22T11:59:41.173Z,21.59
2019-04-22T12:00:41.224Z,21.56
2019-04-22T12:01:42.514Z,21.54
2019-04-22T12:02:42.936Z,21.52
2019-04-22T12:03:41.997Z,21.43
2019-04-22T12:04:41.405Z,21.58
2019-04-22T12:05:41.778Z,21.44
2019-04-22T12:06:41.969Z,21.49
2019-04-22T12:07:42.402Z,21.50
2019-04-22T12:08:41.617Z,21.58
2019-04-22T12:09:41.925Z,21.50
2019-04-22T12:10:49.440Z,21.61
2019-04-22T12:11:41.719Z,21.65
2019-04-22T12:12:44.704Z,21.68
2019-04-22T12:13:42.254Z,21.64
2019-04-22T12:14:42.467Z,21.72
2019-04-22T12:15:42.746Z,21.72
2019-04-22T12:16:43.464Z,21.80
2019-04-22T12:17:42.646Z,21.88
2019-04-22T12:18:43.091Z,21.83
2019-04-22T12:19:42.111Z,21.84
2019-04-22T12:20:43.366Z,21.91
2019-04-22T12:21:42.176Z,21.88
2019-04-22T12:22:42.928Z,21.83
2019-04-22T12:23:43.429Z,21.86
2019-04-22T12:24:42.596Z,21.90
2019-04-22T12:25:51.710Z,21.91
2019-04-22T12:26:42.509Z,21.82
2019-04-22T12:27:43.152Z,21.90
2019-04-22T12:28:42.510Z,21.90
2019-04-22T12:29:43.011Z,21.86
2019-04-22T12:30:43.515Z,21.86
2019-04-22T12:31:42.726Z,21.90
2019-04-22T12:32:43.554Z,21.91
2019-04-22T12:33:43.405Z,21.96
2019-04-22T12:34:43.663Z,21.94
2019-04-22T12:35:44.228Z,21.94
2019-04-22T12:36:42.875Z,21.92
2019-04-22T12:37:51.029Z,21.96
2019-04-22T12:38:42.960Z,21.91
2019-04-22T12:39:43.481Z,21.86
2019-04-22T12:40:52.260Z,21.94
2019-04-22T12:41:44.316Z,21.94
2019-04-22T12:42:43.137Z,21.96
2019-04-22T12:43:43.269Z,21.92
2019-04-22T12:44:44.122Z,21.92
2019-04-22T12:45:44.780Z,21.90
2019-04-22T12:46:43.939Z,21.88
2019-04-22T12:47:44.123Z,21.84
2019-04-22T12:48:43.473Z,21.88
2019-04-22T12:49:47.594Z,21.80
2019-04-22T12:50:45.922Z,21.86
2019-04-22T12:51:45.253Z,21.86
2019-04-22T12:52:51.417Z,21.86
2019-04-22T12:53:44.560Z,21.86
2019-04-22T12:54:44.629Z,21.88
2019-04-22T12:55:43.969Z,21.83
2019-04-22T12:56:44.067Z,21.92
2019-04-22T12:57:43.834Z,21.86
2019-04-22T12:58:43.879Z,21.94
2019-04-22T12:59:43.921Z,21.94
2019-04-22T13:00:44.926Z,21.96
2019-04-22T13:01:44.719Z,21.98
2019-04-22T13:02:45.012Z,21.96
2019-04-22T13:03:44.677Z,22.02
2019-04-22T13:04:44.158Z,22.09
2019-04-22T13:05:45.144Z,21.96
2019-04-22T13:06:45.603Z,22.03
2019-04-22T13:07:44.320Z,22.03
2019-04-22T13:08:45.583Z,22.06
2019-04-22T13:09:45.409Z,21.92
2019-04-22T13:10:53.661Z,21.99
2019-04-22T13:11:45.957Z,21.88
2019-04-22T13:12:44.850Z,21.83
2019-04-22T13:13:45.148Z,21.98
2019-04-22T13:14:45.552Z,21.90
2019-04-22T13:15:44.702Z,21.92
2019-04-22T13:16:44.990Z,21.88
2019-04-22T13:17:46.269Z,21.82
2019-04-22T13:18:53.145Z,21.88
2019-04-22T13:19:44.843Z,21.88
2019-04-22T13:20:46.266Z,21.82
2019-04-22T13:21:44.952Z,21.94
2019-04-22T13:22:45.089Z,21.91
2019-04-22T13:23:46.300Z,21.92
2019-04-22T13:24:45.821Z,21.92
2019-04-22T13:25:45.116Z,21.92
2019-04-22T13:26:45.352Z,21.83
2019-04-22T13:27:46.769Z,21.83
2019-04-22T13:28:45.276Z,21.90
2019-04-22T13:29:46.695Z,21.96
2019-04-22T13:30:46.520Z,21.94
2019-04-22T13:31:46.584Z,21.88
2019-04-22T13:32:46.967Z,21.84
2019-04-22T13:33:46.670Z,21.90
2019-04-22T13:34:48.016Z,21.91
2019-04-22T13:35:45.755Z,21.91
2019-04-22T13:36:47.026Z,21.86
2019-04-22T13:37:46.762Z,21.82
2019-04-22T13:38:46.806Z,21.91
2019-04-22T13:39:46.953Z,21.91
2019-04-22T13:41:00.893Z,21.92
2019-04-22T13:41:50.473Z,21.90
2019-04-22T13:42:46.843Z,21.99
2019-04-22T13:43:47.165Z,22.02
2019-04-22T13:44:46.187Z,22.05
2019-04-22T13:45:46.033Z,22.06
2019-04-22T13:47:04.104Z,21.92
2019-04-22T13:48:02.886Z,22.02
2019-04-22T13:49:14.755Z,21.92
2019-04-22T13:50:35.538Z,21.91
2019-04-22T13:51:33.955Z,21.96
2019-04-22T13:52:20.770Z,21.90
2019-04-22T13:53:30.404Z,21.86
2019-04-22T13:54:46.889Z,21.94
2019-04-22T13:55:16.403Z,21.91
2019-04-22T13:56:07.206Z,21.99
2019-04-22T13:57:06.167Z,21.92
2019-04-22T13:57:58.265Z,21.98
2019-04-22T13:58:58.919Z,21.91
2019-04-22T13:59:53.529Z,21.98
2019-04-22T14:00:46.932Z,21.91
2019-04-22T14:01:48.299Z,21.90
2019-04-22T14:02:46.824Z,21.94
2019-04-22T14:03:47.002Z,21.99
2019-04-22T14:04:48.365Z,21.90
2019-04-22T14:05:46.956Z,21.86
2019-04-22T14:06:47.117Z,21.84
2019-04-22T14:07:47.053Z,21.90
2019-04-22T14:08:47.231Z,21.84
2019-04-22T14:09:48.627Z,21.86
2019-04-22T14:10:48.438Z,21.80
2019-04-22T14:11:54.117Z,21.79
2019-04-22T14:12:48.705Z,21.74
2019-04-22T14:13:47.986Z,21.84
2019-04-22T14:14:49.087Z,21.80
2019-04-22T14:15:48.448Z,21.71
2019-04-22T14:16:49.014Z,21.80
2019-04-22T14:17:47.507Z,21.79
2019-04-22T14:18:47.775Z,21.77
2019-04-22T14:19:48.525Z,21.80
2019-04-22T14:20:49.023Z,21.77
2019-04-22T14:21:47.689Z,21.88
2019-04-22T14:22:48.517Z,21.79
2019-04-22T14:23:48.723Z,21.77
2019-04-22T14:24:48.833Z,21.80
2019-04-22T14:25:48.463Z,21.80
2019-04-22T14:26:58.941Z,21.91
2019-04-22T14:27:57.739Z,21.92
2019-04-22T14:28:48.130Z,21.79
2019-04-22T14:29:49.315Z,21.92
2019-04-22T14:30:48.539Z,21.92
2019-04-22T14:32:01.140Z,21.91
2019-04-22T14:32:48.195Z,21.77
2019-04-22T14:33:53.613Z,21.69
2019-04-22T14:34:49.110Z,21.71
2019-04-22T14:35:49.773Z,21.72